Time;durP1;ratioP1;P1;durP2;ratioP2;P2;SDS_P1;SDS_P2;PMS_P1;PMS_P2;Temp;Humidity;BMP_temperature;BMP_pressure;BME280_temperature;BME280_humidity;BME280_pressure;Samples;Min_cycle;Max_cycle;Signal;HPM_P1;HPM_P2
2023/05/16 00:02:04;;;;;;;;;;;;;;;12.88;45.39;102146.31;7338019;19;21416;-60
2023/05/16 00:04:31;;;;;;;;;;;;;;;12.84;44.90;102147.22;7302038;19;20015;-59
2023/05/16 00:06:57;;;;;;;;;;;;;;;12.79;45.25;102154.25;7334345;19;19923;-59
2023/05/16 00:09:22;;;;;;;;;;;;;;;12.74;45.08;102143.81;7340883;19;20506;-60
2023/05/16 00:11:47;;;;;;;;;;;;;;;12.70;45.20;102136.84;7346369;19;19922;-60
2023/05/16 00:14:13;;;;;;;;;;;;;;;12.66;44.95;102145.59;7344614;19;19922;-59
2023/05/16 00:16:40;;;;;;;;;;;;;;;12.62;45.22;102150.03;7344324;19;19922;-60
2023/05/16 00:19:06;;;;;;;;;;;;;;;12.58;45.42;102150.94;7344893;19;20541;-60
2023/05/16 00:21:31;;;;;;;;;;;;;;;12.54;45.83;102149.19;7343058;19;19934;-60
2023/05/16 00:23:56;;;;;;;;;;;;;;;12.51;45.80;102153.59;7344369;19;19918;-60
2023/05/16 00:26:22;;;;;;;;;;;;;;;12.47;45.98;102150.16;7343984;19;19918;-60
2023/05/16 00:28:47;;;;;;;;;;;;;;;12.40;45.96;102138.81;7340109;19;19917;-60
2023/05/16 00:31:12;;;;;;;;;;;;;;;12.37;45.88;102143.22;7345857;19;19914;-59
2023/05/16 00:33:37;;;;;;;;;;;;;;;12.34;45.87;102149.34;7340501;19;19926;-60
2023/05/16 00:36:03;;;;;;;;;;;;;;;12.01;45.75;102103.28;7344009;19;20755;-61
2023/05/16 00:38:28;;;;;;;;;;;;;;;12.26;45.64;102151.13;7346875;19;19922;-60
2023/05/16 00:40:53;;;;;;;;;;;;;;;12.23;46.28;102142.44;7338431;19;19939;-59
2023/05/16 00:43:19;;;;;;;;;;;;;;;12.18;45.92;102140.72;7346190;19;19943;-60
2023/05/16 00:45:44;;;;;;;;;;;;;;;12.15;46.11;102143.34;7341956;19;19929;-59
2023/05/16 00:48:11;;;;;;;;;;;;;;;12.12;46.12;102143.38;7350350;19;19907;-60
2023/05/16 00:50:36;;;;;;;;;;;;;;;12.08;46.23;102140.78;7353258;19;19918;-60
2023/05/16 00:53:02;;;;;;;;;;;;;;;12.04;46.12;102141.69;7336185;19;19931;-59
2023/05/16 00:55:27;;;;;;;;;;;;;;;12.01;46.33;102139.94;7350624;19;19934;-59
2023/05/16 00:57:53;;;;;;;;;;;;;;;11.96;46.42;102136.47;7353903;19;19929;-60
2023/05/16 01:00:18;;;;;;;;;;;;;;;11.94;46.32;102138.25;7352828;19;19935;-60
2023/05/16 01:02:44;;;;;;;;;;;;;;;11.90;46.66;102141.75;7352844;19;19922;-60
2023/05/16 01:05:10;;;;;;;;;;;;;;;11.85;46.32;102139.16;7349069;19;20033;-59
2023/05/16 01:07:35;;;;;;;;;;;;;;;11.82;46.60;102133.09;7353905;19;19935;-60
2023/05/16 01:10:02;;;;;;;;;;;;;;;11.79;46.68;102127.81;7347115;19;20017;-60
2023/05/16 01:12:41;;;;;;;;;;;;;;;11.75;46.43;102128.69;7355286;19;20002;-60
2023/05/16 01:15:14;;;;;;;;;;;;;;;11.69;46.74;102127.84;7332303;19;20857;-59
2023/05/16 01:17:40;;;;;;;;;;;;;;;11.66;46.76;102122.66;7355949;19;20483;-60
2023/05/16 01:20:24;;;;;;;;;;;;;;;11.62;46.67;102120.91;7354304;19;19919;-60
2023/05/16 01:23:03;;;;;;;;;;;;;;;11.58;47.15;102124.41;7350551;19;19952;-60
2023/05/16 01:25:46;;;;;;;;;;;;;;;11.55;46.85;102115.69;7353653;19;19930;-59
2023/05/16 01:28:12;;;;;;;;;;;;;;;11.50;47.03;102125.31;7352171;19;19942;-60
2023/05/16 01:30:39;;;;;;;;;;;;;;;11.45;46.99;102122.72;7354351;19;19918;-60
2023/05/16 01:33:04;;;;;;;;;;;;;;;11.42;46.90;102117.50;7354397;19;19938;-60
2023/05/16 01:35:29;;;;;;;;;;;;;;;11.39;46.98;102122.75;7354794;19;19923;-60
2023/05/16 01:38:10;;;;;;;;;;;;;;;11.35;46.91;102118.38;7353423;19;19919;-59
2023/05/16 01:40:41;;;;;;;;;;;;;;;11.31;46.79;102111.47;7353659;19;19918;-59
2023/05/16 01:43:09;;;;;;;;;;;;;;;11.26;46.77;102121.94;7352364;19;20154;-60
2023/05/16 01:45:38;;;;;;;;;;;;;;;11.23;47.00;102121.91;7354719;19;19978;-59
2023/05/16 01:48:06;;;;;;;;;;;;;;;11.20;47.10;102121.03;7350588;19;19935;-59
2023/05/16 01:50:33;;;;;;;;;;;;;;;11.15;47.40;102119.34;7353081;19;19930;-59
2023/05/16 01:53:07;;;;;;;;;;;;;;;11.12;47.46;102123.69;7350038;19;20660;-60
2023/05/16 01:55:41;;;;;;;;;;;;;;;11.07;47.20;102126.31;7352881;19;19939;-59
2023/05/16 01:58:07;;;;;;;;;;;;;;;11.04;47.28;102121.09;7344245;19;19918;-60
2023/05/16 02:00:32;;;;;;;;;;;;;;;11.00;47.22;102124.59;7354312;19;20328;-60
2023/05/16 02:02:58;;;;;;;;;;;;;;;10.98;47.67;102121.09;7352845;19;19919;-60
2023/05/16 02:05:23;;;;;;;;;;;;;;;10.94;47.36;102129.81;7354662;19;19922;-60
2023/05/16 02:07:48;;;;;;;;;;;;;;;10.92;47.27;102131.56;7352422;19;19915;-59
2023/05/16 02:10:14;;;;;;;;;;;;;;;10.88;47.37;102129.81;7354061;19;19919;-59
2023/05/16 02:12:39;;;;;;;;;;;;;;;10.85;47.51;102124.63;7349355;19;19914;-59
2023/05/16 02:15:05;;;;;;;;;;;;;;;10.82;47.61;102135.06;7354677;19;19922;-60
2023/05/16 02:17:30;;;;;;;;;;;;;;;10.79;47.64;102124.59;7352908;19;19934;-60
2023/05/16 02:19:56;;;;;;;;;;;;;;;10.54;47.77;102085.47;7354635;19;20665;-60
2023/05/16 02:22:21;;;;;;;;;;;;;;;10.72;47.40;102117.66;7352208;19;19919;-59
2023/05/16 02:24:46;;;;;;;;;;;;;;;10.34;47.51;102064.56;7354021;19;19915;-60
2023/05/16 02:27:11;;;;;;;;;;;;;;;10.65;47.50;102120.28;7351912;19;19960;-59
2023/05/16 02:29:37;;;;;;;;;;;;;;;10.62;47.80;102125.50;7349346;19;19939;-60
2023/05/16 02:32:02;;;;;;;;;;;;;;;10.59;47.03;102127.22;7354737;19;20449;-60
2023/05/16 02:34:27;;;;;;;;;;;;;;;10.55;47.79;102126.38;7351532;19;19958;-60
2023/05/16 02:36:52;;;;;;;;;;;;;;;10.52;47.96;102123.75;7351313;19;19935;-59
2023/05/16 02:39:18;;;;;;;;;;;;;;;10.50;47.64;102127.25;7353733;19;20495;-59
2023/05/16 02:41:43;;;;;;;;;;;;;;;10.46;48.00;102123.75;7352529;19;20585;-60
2023/05/16 02:44:08;;;;;;;;;;;;;;;10.43;47.54;102118.50;7353717;19;19942;-59
2023/05/16 02:46:35;;;;;;;;;;;;;;;10.39;47.80;102125.50;7352260;19;19943;-60
2023/05/16 02:49:00;;;;;;;;;;;;;;;10.37;47.91;102126.34;7343296;19;19919;-59
2023/05/16 02:51:26;;;;;;;;;;;;;;;10.34;47.85;102115.88;7355259;19;19910;-59
2023/05/16 02:53:52;;;;;;;;;;;;;;;10.31;47.76;102115.91;7349366;19;19929;-60
2023/05/16 02:56:18;;;;;;;;;;;;;;;10.27;47.81;102115.03;7348598;19;19922;-60
2023/05/16 02:58:45;;;;;;;;;;;;;;;10.24;47.69;102103.69;7351622;19;19919;-60
2023/05/16 03:01:10;;;;;;;;;;;;;;;9.99;48.22;102069.72;7347268;19;19926;-60
2023/05/16 03:03:36;;;;;;;;;;;;;;;10.19;48.18;102116.75;7350990;19;19925;-59
2023/05/16 03:06:01;;;;;;;;;;;;;;;10.17;48.06;102117.59;7333572;19;19925;-59
2023/05/16 03:08:27;;;;;;;;;;;;;;;10.13;48.26;102120.19;7354206;19;20553;-59
2023/05/16 03:10:52;;;;;;;;;;;;;;;10.10;47.71;102117.56;7352189;19;19915;-60
2023/05/16 03:13:17;;;;;;;;;;;;;;;10.08;48.21;102118.44;7353483;19;19922;-60
2023/05/16 03:15:42;;;;;;;;;;;;;;;10.04;48.18;102117.56;7349977;19;20422;-60
2023/05/16 03:18:08;;;;;;;;;;;;;;;10.02;48.23;102124.50;7352886;19;19947;-59
2023/05/16 03:20:33;;;;;;;;;;;;;;;9.99;48.42;102124.53;7332710;19;19942;-60
2023/05/16 03:22:58;;;;;;;;;;;;;;;9.97;48.11;102123.63;7349330;19;19926;-59
2023/05/16 03:25:23;;;;;;;;;;;;;;;9.94;48.34;102118.41;7344255;19;20742;-60
2023/05/16 03:27:49;;;;;;;;;;;;;;;9.92;48.33;102122.75;7349416;19;20590;-59
2023/05/16 03:30:14;;;;;;;;;;;;;;;9.89;48.11;102122.75;7347864;19;19926;-59
2023/05/16 03:32:40;;;;;;;;;;;;;;;9.87;48.11;102127.06;7343624;19;19915;-60
2023/05/16 03:35:05;;;;;;;;;;;;;;;9.80;48.17;102120.09;7342366;19;19915;-60
2023/05/16 03:37:30;;;;;;;;;;;;;;;9.79;48.50;102126.19;7345101;19;19918;-59
2023/05/16 03:39:56;;;;;;;;;;;;;;;9.76;48.28;102119.22;7346580;19;19930;-60
2023/05/16 03:42:21;;;;;;;;;;;;;;;9.74;48.06;102122.72;7327763;19;20375;-60
2023/05/16 03:44:46;;;;;;;;;;;;;;;9.70;48.42;102119.22;7350205;19;19947;-60
2023/05/16 03:47:11;;;;;;;;;;;;;;;9.68;48.46;102117.44;7353476;19;19951;-60
2023/05/16 03:49:37;;;;;;;;;;;;;;;9.66;48.52;102124.41;7357088;19;19918;-59
2023/05/16 03:52:03;;;;;;;;;;;;;;;9.62;48.66;102124.38;7359587;19;19923;-60
2023/05/16 03:54:28;;;;;;;;;;;;;;;9.60;48.23;102120.91;7353765;19;19915;-60
2023/05/16 03:56:53;;;;;;;;;;;;;;;9.58;48.90;102130.47;7356961;19;19934;-60
2023/05/16 03:59:18;;;;;;;;;;;;;;;9.55;48.79;102127.84;7353975;19;19915;-59
2023/05/16 04:01:44;;;;;;;;;;;;;;;9.53;48.81;102129.59;7359305;19;22547;-59
2023/05/16 04:04:09;;;;;;;;;;;;;;;9.51;48.62;102126.06;7353069;19;19933;-59
2023/05/16 04:06:34;;;;;;;;;;;;;;;9.49;48.44;102125.22;7358453;19;20715;-59
2023/05/16 04:09:00;;;;;;;;;;;;;;;9.46;49.08;102125.19;7355114;19;19913;-60
2023/05/16 04:11:25;;;;;;;;;;;;;;;9.45;49.02;102131.28;7357831;19;20341;-59
2023/05/16 04:13:51;;;;;;;;;;;;;;;9.43;48.53;102132.09;7357092;19;19929;-60
2023/05/16 04:16:16;;;;;;;;;;;;;;;9.40;48.98;102132.97;7358463;19;19922;-60
2023/05/16 04:18:41;;;;;;;;;;;;;;;9.37;48.74;102127.75;7356678;19;19925;-59
2023/05/16 04:21:09;;;;;;;;;;;;;;;9.36;49.02;102131.22;7353627;19;19915;-60
2023/05/16 04:23:34;;;;;;;;;;;;;;;9.33;48.75;102131.22;7355745;19;19926;-59
2023/05/16 04:26:00;;;;;;;;;;;;;;;9.31;48.92;102132.94;7353295;19;19952;-60
2023/05/16 04:28:26;;;;;;;;;;;;;;;9.30;49.13;102131.19;7355945;19;19935;-60
2023/05/16 04:30:51;;;;;;;;;;;;;;;9.20;48.98;102118.97;7353704;19;19919;-60
2023/05/16 04:33:17;;;;;;;;;;;;;;;9.27;48.98;102145.06;7357222;19;19918;-59
2023/05/16 04:35:42;;;;;;;;;;;;;;;9.26;49.15;102135.50;7353546;19;19933;-59
2023/05/16 04:38:08;;;;;;;;;;;;;;;9.25;49.40;102138.13;7356363;19;19974;-59
2023/05/16 04:40:34;;;;;;;;;;;;;;;8.88;49.21;102074.50;7356685;19;19952;-59
2023/05/16 04:42:59;;;;;;;;;;;;;;;9.22;48.79;102138.09;7357216;19;19929;-59
2023/05/16 04:45:24;;;;;;;;;;;;;;;9.21;49.05;102154.59;7356338;19;19923;-59
2023/05/16 04:47:50;;;;;;;;;;;;;;;9.20;48.80;102139.81;7356703;19;19918;-60
2023/05/16 04:50:16;;;;;;;;;;;;;;;9.18;49.16;102141.56;7355567;19;20458;-59
2023/05/16 04:52:42;;;;;;;;;;;;;;;9.17;49.03;102151.09;7353084;19;20404;-60
2023/05/16 04:55:07;;;;;;;;;;;;;;;9.16;49.24;102153.69;7352725;19;19923;-60
2023/05/16 04:57:32;;;;;;;;;;;;;;;9.16;48.85;102158.91;7349678;19;21290;-60
2023/05/16 04:59:58;;;;;;;;;;;;;;;9.14;49.18;102158.91;7356513;19;19934;-59
2023/05/16 05:02:23;;;;;;;;;;;;;;;9.13;49.33;102164.13;7353914;19;20674;-60
2023/05/16 05:04:48;;;;;;;;;;;;;;;9.12;49.14;102162.34;7354846;19;19923;-60
2023/05/16 05:07:14;;;;;;;;;;;;;;;9.10;49.09;102162.34;7351390;19;19925;-59
2023/05/16 05:09:42;;;;;;;;;;;;;;;9.08;49.45;102157.13;7355626;19;19964;-59
2023/05/16 05:12:08;;;;;;;;;;;;;;;9.08;49.42;102156.25;7355604;19;20660;-59
2023/05/16 05:14:33;;;;;;;;;;;;;;;9.08;49.46;102166.69;7354612;19;19998;-59
2023/05/16 05:16:58;;;;;;;;;;;;;;;9.07;49.41;102162.31;7354939;19;19982;-60
2023/05/16 05:19:23;;;;;;;;;;;;;;;9.06;49.28;102164.03;7355739;19;20040;-59
2023/05/16 05:21:48;;;;;;;;;;;;;;;9.06;49.52;102171.88;7354250;19;19919;-60
2023/05/16 05:24:14;;;;;;;;;;;;;;;9.06;49.15;102164.03;7355704;19;19926;-59
2023/05/16 05:26:39;;;;;;;;;;;;;;;9.06;48.94;102169.25;7353730;19;20764;-59
2023/05/16 05:29:05;;;;;;;;;;;;;;;9.07;49.65;102167.50;7352654;19;19914;-59
2023/05/16 05:31:32;;;;;;;;;;;;;;;9.07;49.35;102165.81;7356277;19;20627;-60
2023/05/16 05:33:57;;;;;;;;;;;;;;;9.07;48.91;102176.25;7348044;19;19979;-60
2023/05/16 05:36:23;;;;;;;;;;;;;;;8.84;49.61;102133.50;7355050;19;20371;-60
2023/05/16 05:38:48;;;;;;;;;;;;;;;9.09;49.87;102178.84;7353068;19;20180;-59
2023/05/16 05:41:13;;;;;;;;;;;;;;;9.09;49.86;102179.72;7351789;19;19942;-60
2023/05/16 05:43:38;;;;;;;;;;;;;;;9.09;50.01;102184.94;7354237;19;19923;-59
2023/05/16 05:46:04;;;;;;;;;;;;;;;9.10;49.97;102186.66;7355468;19;20658;-60
2023/05/16 05:48:31;;;;;;;;;;;;;;;9.13;49.74;102184.97;7354148;19;19927;-60
2023/05/16 05:50:56;;;;;;;;;;;;;;;9.15;50.03;102178.00;7355667;19;20556;-60
2023/05/16 05:53:21;;;;;;;;;;;;;;;9.16;49.92;102185.84;7354106;19;19927;-60
2023/05/16 05:55:47;;;;;;;;;;;;;;;9.18;50.01;102193.69;7354771;19;19944;-60
2023/05/16 05:58:12;;;;;;;;;;;;;;;9.21;50.00;102188.47;7344552;19;19911;-59
2023/05/16 06:00:37;;;;;;;;;;;;;;;9.22;49.71;102190.22;7356857;19;19918;-59
2023/05/16 06:03:03;;;;;;;;;;;;;;;9.25;50.15;102195.47;7354077;19;19923;-61
2023/05/16 06:05:28;;;;;;;;;;;;;;;9.28;50.00;102200.69;7348391;19;20017;-59
2023/05/16 06:07:53;;;;;;;;;;;;;;;9.30;50.17;102199.84;7354628;19;19952;-59
2023/05/16 06:10:18;;;;;;;;;;;;;;;9.33;50.54;102206.81;7354439;19;19928;-60
2023/05/16 06:12:44;;;;;;;;;;;;;;;9.35;50.06;102203.34;7353997;19;19918;-59
2023/05/16 06:15:09;;;;;;;;;;;;;;;9.39;50.15;102204.25;7349386;19;19931;-59
2023/05/16 06:17:35;;;;;;;;;;;;;;;9.43;50.44;102210.31;7355521;19;19926;-59
2023/05/16 06:20:00;;;;;;;;;;;;;;;9.46;50.07;102216.44;7352055;19;20139;-59
2023/05/16 06:22:25;;;;;;;;;;;;;;;9.49;50.26;102221.69;7354009;19;20497;-60
2023/05/16 06:24:51;;;;;;;;;;;;;;;9.53;50.61;102217.34;7350573;19;20418;-60
2023/05/16 06:27:16;;;;;;;;;;;;;;;9.57;50.75;102222.59;7353371;19;19996;-60
2023/05/16 06:29:41;;;;;;;;;;;;;;;9.60;51.09;102225.22;7350458;19;20560;-60
2023/05/16 06:32:06;;;;;;;;;;;;;;;9.64;50.72;102220.03;7349099;19;20613;-60
2023/05/16 06:34:32;;;;;;;;;;;;;;;9.32;50.80;102160.72;7330724;19;20831;-61
2023/05/16 06:36:58;;;;;;;;;;;;;;;9.73;50.82;102231.41;7352820;19;19926;-60
2023/05/16 06:39:23;;;;;;;;;;;;;;;9.78;51.18;102231.41;7353837;19;19938;-61
2023/05/16 06:41:49;;;;;;;;;;;;;;;9.83;51.16;102238.41;7355771;19;19943;-60
2023/05/16 06:44:14;;;;;;;;;;;;;;;9.88;51.51;102241.00;7351251;19;20007;-60
2023/05/16 06:46:39;;;;;;;;;;;;;;;9.93;51.50;102236.69;7353599;19;20546;-59
2023/05/16 06:49:05;;;;;;;;;;;;;;;9.99;51.19;102233.25;7351197;19;19922;-60
2023/05/16 06:51:31;;;;;;;;;;;;;;;10.04;51.69;102232.41;7351338;19;20450;-60
2023/05/16 06:53:56;;;;;;;;;;;;;;;10.09;51.33;102235.91;7346380;19;19951;-60
2023/05/16 06:56:22;;;;;;;;;;;;;;;10.18;51.26;102244.63;7351900;19;20618;-59
2023/05/16 06:58:48;;;;;;;;;;;;;;;10.23;51.45;102227.22;7351339;19;19911;-60
2023/05/16 07:01:13;;;;;;;;;;;;;;;10.30;51.78;102231.66;7352631;19;20361;-60
2023/05/16 07:03:38;;;;;;;;;;;;;;;10.36;51.54;102235.16;7350151;19;20010;-60
2023/05/16 07:06:04;;;;;;;;;;;;;;;10.08;51.93;102176.72;7351465;19;19929;-60
2023/05/16 07:08:29;;;;;;;;;;;;;;;10.49;51.68;102240.41;7353195;19;19927;-60
2023/05/16 07:10:55;;;;;;;;;;;;;;;10.55;51.76;102236.06;7354414;19;20675;-60
2023/05/16 07:13:20;;;;;;;;;;;;;;;10.63;51.42;102233.47;7353370;19;20778;-59
2023/05/16 07:15:45;;;;;;;;;;;;;;;10.37;51.75;102183.78;7345191;19;19918;-60
2023/05/16 07:18:10;;;;;;;;;;;;;;;10.76;51.63;102245.69;7342666;19;19926;-60
2023/05/16 07:20:36;;;;;;;;;;;;;;;10.84;51.38;102249.16;7349941;19;21808;-60
2023/05/16 07:23:01;;;;;;;;;;;;;;;10.91;51.59;102248.31;7351403;19;20326;-59
2023/05/16 07:25:26;;;;;;;;;;;;;;;10.98;51.63;102241.34;7353190;19;19928;-60
2023/05/16 07:27:52;;;;;;;;;;;;;;;11.05;51.67;102248.31;7353511;19;20358;-60
2023/05/16 07:30:17;;;;;;;;;;;;;;;11.13;51.82;102241.34;7356589;19;20261;-59
2023/05/16 07:32:42;;;;;;;;;;;;;;;11.20;52.02;102242.19;7356172;19;19939;-59
2023/05/16 07:35:08;;;;;;;;;;;;;;;11.29;52.08;102238.72;7352702;19;20273;-67
2023/05/16 07:37:33;;;;;;;;;;;;;;;11.36;52.17;102240.47;7356197;19;19926;-67
2023/05/16 07:39:58;;;;;;;;;;;;;;;11.43;52.14;102235.22;7354291;19;20616;-67
2023/05/16 07:42:24;;;;;;;;;;;;;;;11.52;51.79;102239.56;7353782;19;20916;-67
2023/05/16 07:44:49;;;;;;;;;;;;;;;11.60;51.86;102243.00;7334517;19;19996;-67
2023/05/16 07:47:15;;;;;;;;;;;;;;;11.66;52.23;102243.03;7343117;19;19919;-67
2023/05/16 07:49:40;;;;;;;;;;;;;;;11.75;51.87;102238.63;7344958;19;20256;-67
2023/05/16 07:52:05;;;;;;;;;;;;;;;11.83;52.12;102234.28;7344886;19;19926;-67
2023/05/16 07:54:32;;;;;;;;;;;;;;;11.90;52.72;102238.59;7343896;19;20009;-67
2023/05/16 07:56:57;;;;;;;;;;;;;;;11.97;52.73;102232.47;7345977;19;19918;-67
2023/05/16 07:59:22;;;;;;;;;;;;;;;12.07;52.49;102239.44;7351675;19;19927;-66
2023/05/16 08:01:48;;;;;;;;;;;;;;;12.16;52.71;102241.97;7338671;19;19919;-67
2023/05/16 08:04:13;;;;;;;;;;;;;;;12.26;52.12;102239.31;7347325;19;19927;-67
2023/05/16 08:06:38;;;;;;;;;;;;;;;12.35;52.51;102231.41;7342085;19;19937;-66
2023/05/16 08:09:03;;;;;;;;;;;;;;;12.44;52.63;102234.00;7349879;19;19982;-67
2023/05/16 08:11:29;;;;;;;;;;;;;;;12.53;52.28;102238.31;7341305;19;19934;-67
2023/05/16 08:13:54;;;;;;;;;;;;;;;12.60;52.84;102233.00;7345184;19;19927;-67
2023/05/16 08:16:19;;;;;;;;;;;;;;;12.68;52.58;102236.47;7344635;19;20339;-67
2023/05/16 08:18:44;;;;;;;;;;;;;;;12.76;52.75;102230.28;7340762;19;20619;-68
2023/05/16 08:21:10;;;;;;;;;;;;;;;12.84;52.48;102233.72;7338583;19;20551;-67
2023/05/16 08:23:35;;;;;;;;;;;;;;;12.92;52.36;102231.91;7344357;19;19935;-67
2023/05/16 08:26:01;;;;;;;;;;;;;;;12.99;52.54;102229.22;7355420;19;19915;-67
2023/05/16 08:28:27;;;;;;;;;;;;;;;13.06;52.55;102235.28;7350432;19;19919;-67
2023/05/16 08:30:52;;;;;;;;;;;;;;;13.14;52.39;102238.72;7348104;19;19925;-67
2023/05/16 08:33:17;;;;;;;;;;;;;;;13.23;52.55;102237.81;7356033;19;19922;-67
2023/05/16 08:35:43;;;;;;;;;;;;;;;13.30;52.63;102234.25;7358715;19;19927;-67
2023/05/16 08:38:08;;;;;;;;;;;;;;;13.40;52.27;102227.16;7361024;19;19918;-67
2023/05/16 08:40:33;;;;;;;;;;;;;;;13.48;52.19;102238.41;7356220;19;20020;-68
2023/05/16 08:42:59;;;;;;;;;;;;;;;13.57;52.18;102238.34;7358083;19;19952;-64
2023/05/16 08:45:24;;;;;;;;;;;;;;;13.65;52.60;102230.38;7358946;19;20377;-67
2023/05/16 08:47:53;;;;;;;;;;;;;;;13.73;52.46;102237.28;7358652;19;19938;-67
2023/05/16 08:50:18;;;;;;;;;;;;;;;13.82;52.24;102235.44;7355256;19;19910;-68
2023/05/16 08:52:46;;;;;;;;;;;;;;;13.89;52.24;102242.34;7355314;19;19918;-67
2023/05/16 08:55:12;;;;;;;;;;;;;;;13.98;52.01;102242.25;7354712;19;19923;-67
2023/05/16 08:57:37;;;;;;;;;;;;;;;14.05;52.41;102241.28;7359886;19;21274;-68
2023/05/16 09:00:09;;;;;;;;;;;;;;;14.13;52.50;102249.94;7361694;19;19919;-67
2023/05/16 09:02:34;;;;;;;;;;;;;;;13.90;52.33;102188.97;7361817;19;19918;-67
2023/05/16 09:05:00;;;;;;;;;;;;;;;14.26;52.25;102230.50;7359431;19;19926;-68
2023/05/16 09:07:25;;;;;;;;;;;;;;;14.34;52.21;102237.41;7358901;19;19926;-67
2023/05/16 09:09:51;;;;;;;;;;;;;;;14.13;52.21;102186.88;7357934;19;19946;-67
2023/05/16 09:12:16;;;;;;;;;;;;;;;14.54;52.74;102231.00;7340366;19;19965;-67
2023/05/16 09:14:42;;;;;;;;;;;;;;;14.74;52.81;102240.34;7332889;19;19930;-67
2023/05/16 09:17:08;;;;;;;;;;;;;;;14.96;52.80;102233.00;7344097;19;20434;-67
2023/05/16 09:19:39;;;;;;;;;;;;;;;15.22;52.59;102241.31;7350179;19;19922;-67
2023/05/16 09:22:08;;;;;;;;;;;;;;;15.51;52.54;102234.63;7347810;19;20267;-67
2023/05/16 09:24:37;;;;;;;;;;;;;;;15.79;52.52;102238.53;7347287;19;19994;-67
2023/05/16 09:27:08;;;;;;;;;;;;;;;16.08;52.87;102230.03;7347710;19;19938;-66
2023/05/16 09:29:33;;;;;;;;;;;;;;;16.38;52.82;102238.19;7349878;19;19930;-67
2023/05/16 09:32:13;;;;;;;;;;;;;;;16.69;52.43;102243.63;7349053;19;19911;-68
2023/05/16 09:34:41;;;;;;;;;;;;;;;17.03;52.83;102242.81;7350739;19;19922;-68
2023/05/16 09:37:08;;;;;;;;;;;;;;;17.31;52.37;102243.84;7344123;19;20223;-67
2023/05/16 09:39:34;;;;;;;;;;;;;;;17.54;52.12;102245.03;7351899;19;20684;-68
2023/05/16 09:41:59;;;;;;;;;;;;;;;17.72;51.79;102239.22;7348163;19;19922;-67
2023/05/16 09:44:24;;;;;;;;;;;;;;;17.96;51.97;102236.84;7346954;19;19922;-68
2023/05/16 09:46:52;;;;;;;;;;;;;;;18.23;51.82;102241.28;7347354;19;19922;-68
2023/05/16 09:49:17;;;;;;;;;;;;;;;18.52;51.81;102242.19;7349684;19;19918;-68
2023/05/16 09:51:43;;;;;;;;;;;;;;;18.82;51.81;102241.25;7348324;19;19918;-67
2023/05/16 09:54:08;;;;;;;;;;;;;;;19.16;52.06;102241.00;7348649;19;19923;-68
2023/05/16 09:56:46;;;;;;;;;;;;;;;19.52;51.38;102242.41;7347797;19;20414;-68
2023/05/16 09:59:13;;;;;;;;;;;;;;;19.88;51.64;102235.81;7348197;19;20579;-67
2023/05/16 10:01:38;;;;;;;;;;;;;;;20.19;51.55;102234.66;7349728;19;19972;-68
2023/05/16 10:04:04;;;;;;;;;;;;;;;20.38;51.43;102222.41;7345971;19;19979;-67
2023/05/16 10:06:29;;;;;;;;;;;;;;;20.83;50.85;102237.41;7347568;19;19950;-68
2023/05/16 10:08:55;;;;;;;;;;;;;;;21.08;50.74;102252.31;7346844;19;20682;-67
2023/05/16 10:11:21;;;;;;;;;;;;;;;21.27;49.97;102253.28;7348397;19;19921;-67
2023/05/16 10:13:51;;;;;;;;;;;;;;;21.45;49.59;102249.00;7348079;19;19930;-67
2023/05/16 10:16:17;;;;;;;;;;;;;;;21.71;49.97;102237.22;7347626;19;19918;-67
2023/05/16 10:18:42;;;;;;;;;;;;;;;22.00;50.20;102244.72;7346580;19;19930;-68
2023/05/16 10:21:10;;;;;;;;;;;;;;;22.32;49.96;102242.38;7346411;19;19923;-67
2023/05/16 10:23:37;;;;;;;;;;;;;;;22.62;49.29;102242.72;7348477;19;19970;-68
2023/05/16 10:26:03;;;;;;;;;;;;;;;22.84;49.04;102247.84;7347507;19;19933;-68
2023/05/16 10:28:28;;;;;;;;;;;;;;;22.97;48.12;102249.00;7343973;19;19946;-67
2023/05/16 10:30:54;;;;;;;;;;;;;;;23.10;48.49;102251.03;7348393;19;19911;-67
2023/05/16 10:33:19;;;;;;;;;;;;;;;23.28;48.52;102244.78;7349106;19;19911;-67
2023/05/16 10:35:45;;;;;;;;;;;;;;;23.52;48.62;102248.81;7348219;19;19930;-68
2023/05/16 10:38:11;;;;;;;;;;;;;;;23.80;48.22;102244.72;7347153;19;19927;-67
2023/05/16 10:40:38;;;;;;;;;;;;;;;24.07;48.22;102242.34;7349782;19;19922;-67
2023/05/16 10:43:04;;;;;;;;;;;;;;;24.27;47.38;102241.25;7348887;19;19923;-68
2023/05/16 10:45:29;;;;;;;;;;;;;;;24.33;46.54;102246.22;7346886;19;19918;-68
2023/05/16 10:47:56;;;;;;;;;;;;;;;24.35;46.53;102252.34;7347711;19;19918;-67
2023/05/16 10:50:36;;;;;;;;;;;;;;;24.43;46.40;102244.81;7346007;19;19930;-67
2023/05/16 10:53:10;;;;;;;;;;;;;;;24.61;46.60;102248.25;7346445;19;19987;-67
2023/05/16 10:55:37;;;;;;;;;;;;;;;24.84;46.08;102241.59;7343470;19;19998;-67
2023/05/16 10:58:02;;;;;;;;;;;;;;;25.19;47.15;102249.34;7346781;19;19931;-66
2023/05/16 11:00:29;;;;;;;;;;;;;;;25.49;46.31;102241.28;7346971;19;19935;-67
2023/05/16 11:03:03;;;;;;;;;;;;;;;25.79;46.32;102236.75;7347955;19;19919;-68
2023/05/16 11:05:28;;;;;;;;;;;;;;;26.13;46.15;102242.66;7345438;19;20356;-68
2023/05/16 11:08:04;;;;;;;;;;;;;;;26.44;45.90;102238.03;7345823;19;20013;-68
2023/05/16 11:10:30;;;;;;;;;;;;;;;26.70;45.59;102233.63;7343888;19;19930;-68
2023/05/16 11:13:01;;;;;;;;;;;;;;;26.84;43.81;102238.91;7346443;19;19911;-68
2023/05/16 11:15:27;;;;;;;;;;;;;;;26.92;43.45;102231.22;7346728;19;19948;-67
2023/05/16 11:18:07;;;;;;;;;;;;;;;26.92;43.38;102231.22;7345755;19;22287;-67
2023/05/16 11:20:34;;;;;;;;;;;;;;;26.89;42.58;102226.06;7345475;19;19925;-68
2023/05/16 11:23:15;;;;;;;;;;;;;;;26.88;43.48;102205.59;7347139;19;19942;-66
2023/05/16 11:25:42;;;;;;;;;;;;;;;27.12;43.17;102216.50;7344074;19;19931;-67
2023/05/16 11:28:07;;;;;;;;;;;;;;;27.37;43.37;102221.00;7347218;19;19960;-68
2023/05/16 11:30:32;;;;;;;;;;;;;;;27.66;43.58;102211.78;7344914;19;20745;-68
2023/05/16 11:32:58;;;;;;;;;;;;;;;27.99;43.08;102213.06;7345661;19;20010;-67
2023/05/16 11:35:24;;;;;;;;;;;;;;;28.41;43.63;102213.59;7345204;19;20364;-68
2023/05/16 11:37:50;;;;;;;;;;;;;;;28.87;43.91;102220.88;7348582;19;19947;-67
2023/05/16 11:40:15;;;;;;;;;;;;;;;29.32;42.79;102212.94;7341965;19;19919;-67
2023/05/16 11:42:43;;;;;;;;;;;;;;;29.76;42.96;102214.00;7346997;19;20539;-68
2023/05/16 11:45:09;;;;;;;;;;;;;;;30.15;42.17;102218.84;7346208;19;19928;-67
2023/05/16 11:47:35;;;;;;;;;;;;;;;30.41;40.98;102213.16;7346312;19;19938;-67
2023/05/16 11:50:02;;;;;;;;;;;;;;;30.57;40.64;102218.16;7345789;19;19946;-68
2023/05/16 11:52:28;;;;;;;;;;;;;;;30.62;39.82;102219.47;7344875;19;19961;-67
2023/05/16 11:54:54;;;;;;;;;;;;;;;30.58;39.50;102220.72;7343960;19;19919;-68
2023/05/16 11:57:20;;;;;;;;;;;;;;;30.49;39.51;102208.84;7346174;19;19951;-67
2023/05/16 11:59:46;;;;;;;;;;;;;;;30.47;39.81;102213.53;7346235;19;19926;-67
2023/05/16 12:02:11;;;;;;;;;;;;;;;30.58;40.31;102207.22;7344563;19;20054;-67
2023/05/16 12:04:37;;;;;;;;;;;;;;;30.79;40.33;102209.13;7344857;19;19930;-68
2023/05/16 12:07:03;;;;;;;;;;;;;;;31.00;39.59;102220.78;7346359;19;19927;-68
2023/05/16 12:09:28;;;;;;;;;;;;;;;31.19;39.69;102218.22;7351638;19;20480;-68
2023/05/16 12:11:53;;;;;;;;;;;;;;;31.19;38.14;102212.81;7351606;19;19931;-69
2023/05/16 12:14:18;;;;;;;;;;;;;;;31.09;37.25;102221.84;7350160;19;19951;-67
2023/05/16 12:16:45;;;;;;;;;;;;;;;30.95;37.45;102220.31;7350791;19;19978;-67
2023/05/16 12:19:10;;;;;;;;;;;;;;;30.85;36.67;102212.16;7349644;19;20406;-67
2023/05/16 12:21:36;;;;;;;;;;;;;;;30.87;37.68;102212.91;7350970;19;19922;-67
2023/05/16 12:24:02;;;;;;;;;;;;;;;30.93;37.45;102206.97;7349688;19;19936;-68
2023/05/16 12:26:29;;;;;;;;;;;;;;;31.01;36.64;102209.00;7349261;19;19930;-67
2023/05/16 12:28:59;;;;;;;;;;;;;;;31.06;36.88;102206.75;7351777;19;19947;-68
2023/05/16 12:31:25;;;;;;;;;;;;;;;31.05;36.56;102209.59;7350992;19;19982;-68
2023/05/16 12:33:54;;;;;;;;;;;;;;;30.97;35.83;102207.53;7349929;19;19926;-68
2023/05/16 12:36:19;;;;;;;;;;;;;;;30.86;35.75;102202.22;7349803;19;20727;-67